Time;durP1;ratioP1;P1;durP2;ratioP2;P2;SDS_P1;SDS_P2;PMS_P1;PMS_P2;Temp;Humidity;BMP_temperature;BMP_pressure;BME280_temperature;BME280_humidity;BME280_pressure;Samples;Min_cycle;Max_cycle;Signal;HPM_P1;HPM_P2
2022/09/03 00:09:23;;;;;;;4.78;2.00;;;;;;;18.57;60.14;99863.41;20812602;28;20490;-84
2022/09/03 00:19:25;;;;;;;3.30;1.50;;;;;;;18.51;60.51;99861.09;20821995;28;20461;-85
2022/09/03 00:29:27;;;;;;;3.67;1.60;;;;;;;18.57;59.19;99866.03;20820212;28;20053;-85
2022/09/03 00:39:28;;;;;;;6.40;1.58;;;;;;;18.57;59.45;99871.34;20820440;28;20049;-84
2022/09/03 00:49:30;;;;;;;3.22;1.40;;;;;;;18.38;60.85;99860.09;20842766;28;20145;-85
2022/09/03 00:59:32;;;;;;;4.63;1.55;;;;;;;18.33;62.10;99883.34;20839781;23;20133;-68
2022/09/03 01:09:33;;;;;;;4.45;1.58;;;;;;;18.04;65.01;99867.25;20827271;28;20049;-68
2022/09/03 01:19:35;;;;;;;5.32;1.80;;;;;;;17.65;67.45;99876.41;20825275;28;20060;-68
2022/09/03 01:29:37;;;;;;;3.88;1.50;;;;;;;17.22;71.01;99880.44;20824900;28;20084;-68
2022/09/03 01:39:39;;;;;;;7.30;1.70;;;;;;;17.21;72.25;99891.97;20823842;28;20686;-69
2022/09/03 01:49:41;;;;;;;4.35;2.00;;;;;;;17.07;74.02;99889.16;20823911;28;20460;-69
2022/09/03 01:59:42;;;;;;;5.28;2.08;;;;;;;16.94;75.77;99902.13;20823213;28;20107;-69
2022/09/03 02:09:44;;;;;;;4.00;1.92;;;;;;;16.85;75.63;99902.59;20821844;28;20045;-68
2022/09/03 02:19:45;;;;;;;5.15;2.00;;;;;;;16.92;75.14;99889.00;20821617;28;20494;-68
2022/09/03 02:29:47;;;;;;;5.75;2.00;;;;;;;16.91;75.93;99894.34;20820019;28;20050;-68
2022/09/03 02:39:49;;;;;;;3.85;2.35;;;;;;;16.86;78.35;99893.72;20819821;28;20045;-68
2022/09/03 02:49:51;;;;;;;3.35;1.88;;;;;;;16.89;78.13;99891.78;20819364;28;20056;-68
2022/09/03 02:59:52;;;;;;;4.55;2.40;;;;;;;16.86;77.28;99878.72;20818347;28;20042;-68
2022/09/03 03:09:53;;;;;;;6.03;2.00;;;;;;;16.93;78.78;99892.50;20818765;28;20506;-68
2022/09/03 03:19:55;;;;;;;3.63;2.13;;;;;;;16.97;79.35;99890.56;20817532;28;20049;-69
2022/09/03 03:29:56;;;;;;;5.50;2.67;;;;;;;16.91;80.45;99887.28;20817105;28;20482;-69
2022/09/03 03:39:58;;;;;;;4.60;2.22;;;;;;;16.89;82.01;99896.22;20820278;28;20061;-69
2022/09/03 03:49:59;;;;;;;4.55;2.20;;;;;;;17.02;92.42;99899.97;20832096;28;20045;-68
2022/09/03 04:00:01;;;;;;;3.78;2.50;;;;;;;17.11;95.33;99922.47;20831759;28;20099;-69
2022/09/03 04:10:02;;;;;;;4.43;3.05;;;;;;;17.19;100.00;99921.13;20831033;28;20056;-68
2022/09/03 04:20:03;;;;;;;4.47;2.70;;;;;;;17.18;100.00;99927.34;20829930;28;20063;-69
2022/09/03 04:30:05;;;;;;;5.70;3.35;;;;;;;17.13;100.00;99936.44;20829365;28;20055;-69
2022/09/03 04:40:06;;;;;;;7.55;3.53;;;;;;;17.07;100.00;99942.06;20828803;28;20057;-69
2022/09/03 04:50:08;;;;;;;7.72;3.67;;;;;;;16.99;100.00;99945.06;20827580;28;20111;-69
2022/09/03 05:00:10;;;;;;;6.10;3.83;;;;;;;17.05;100.00;99942.13;20827090;28;20046;-69
2022/09/03 05:10:15;;;;;;;5.80;3.55;;;;;;;17.26;100.00;99949.94;20808926;28;20124;-68
2022/09/03 05:20:16;;;;;;;6.50;4.10;;;;;;;17.35;100.00;99957.41;20824894;28;20094;-68
2022/09/03 05:30:17;;;;;;;8.70;5.07;;;;;;;17.24;100.00;99980.88;20824204;28;20490;-70
2022/09/03 05:40:19;;;;;;;7.25;4.50;;;;;;;17.00;100.00;99967.94;20823228;28;20060;-70
2022/09/03 05:50:20;;;;;;;7.03;5.13;;;;;;;17.00;100.00;99983.81;20822830;28;20049;-70
2022/09/03 06:00:22;;;;;;;11.65;6.35;;;;;;;16.95;100.00;99991.09;20821786;28;20394;-70
2022/09/03 06:10:23;;;;;;;10.63;5.68;;;;;;;16.83;100.00;99986.44;20820977;28;20073;-72
2022/09/03 06:20:31;;;;;;;11.02;6.78;;;;;;;16.81;100.00;99988.28;20821083;28;20060;-69
2022/09/03 06:30:37;;;;;;;10.30;7.00;;;;;;;16.37;100.00;99988.56;20820135;28;20045;-70
2022/09/03 06:40:38;;;;;;;10.50;6.93;;;;;;;16.31;100.00;100012.63;20819426;28;20045;-70
2022/09/03 06:50:40;;;;;;;12.98;7.03;;;;;;;16.32;100.00;100016.97;20818491;28;20045;-70
2022/09/03 07:00:41;;;;;;;13.43;6.97;;;;;;;16.14;100.00;100045.94;20818274;28;20074;-69
2022/09/03 07:10:43;;;;;;;12.07;7.25;;;;;;;15.94;100.00;100010.75;20818220;28;20045;-71
2022/09/03 07:20:44;;;;;;;12.90;8.32;;;;;;;16.13;100.00;100046.00;20830666;28;20092;-70
2022/09/03 07:30:46;;;;;;;12.82;7.97;;;;;;;16.21;100.00;100048.31;20834024;28;20413;-69
2022/09/03 07:40:47;;;;;;;13.25;7.90;;;;;;;16.17;100.00;100014.09;20833156;28;20052;-71
2022/09/03 07:50:48;;;;;;;12.20;8.45;;;;;;;16.23;100.00;100006.81;20832154;28;20057;-70
2022/09/03 08:00:50;;;;;;;11.68;8.93;;;;;;;16.36;100.00;100019.41;20831991;28;20095;-70
2022/09/03 08:10:51;;;;;;;11.88;8.70;;;;;;;16.43;100.00;100012.03;20831557;28;20049;-69
2022/09/03 08:20:52;;;;;;;13.93;8.25;;;;;;;16.46;100.00;100040.97;20830076;28;20422;-70
2022/09/03 08:30:54;;;;;;;14.60;10.00;;;;;;;16.81;100.00;100036.72;20828442;28;20065;-69
2022/09/03 08:40:55;;;;;;;13.70;9.65;;;;;;;17.14;100.00;100030.75;20828254;28;20049;-70
2022/09/03 08:50:58;;;;;;;15.85;10.80;;;;;;;17.41;100.00;100052.38;20828532;28;20053;-71
2022/09/03 09:01:00;;;;;;;12.57;9.63;;;;;;;17.67;100.00;100043.97;20827806;28;20037;-71
2022/09/03 09:11:01;;;;;;;18.15;10.10;;;;;;;18.13;100.00;100043.44;20826857;28;20061;-71
2022/09/03 09:21:05;;;;;;;12.68;9.48;;;;;;;18.30;100.00;100050.47;20825701;28;20045;-72
2022/09/03 09:31:07;;;;;;;14.17;9.70;;;;;;;18.02;100.00;100075.78;20824220;28;20049;-71
2022/09/03 09:41:09;;;;;;;15.38;9.93;;;;;;;17.96;100.00;100068.13;20822901;28;20339;-71
2022/09/03 09:51:11;;;;;;;20.52;14.07;;;;;;;17.87;100.00;100050.06;20822621;28;20383;-70
2022/09/03 10:01:12;;;;;;;16.50;12.82;;;;;;;18.37;100.00;100038.63;20821851;28;20050;-69
2022/09/03 10:11:14;;;;;;;15.23;12.10;;;;;;;18.77;100.00;100031.16;20821304;28;20053;-71
2022/09/03 10:21:15;;;;;;;14.32;12.20;;;;;;;18.26;100.00;100048.94;20820793;28;20406;-71
2022/09/03 10:31:17;;;;;;;16.73;11.68;;;;;;;18.18;100.00;100065.25;20819973;28;20081;-71
2022/09/03 10:41:19;;;;;;;12.90;11.15;;;;;;;18.24;100.00;100050.81;20818730;28;20077;-71
2022/09/03 10:51:21;;;;;;;19.02;11.98;;;;;;;18.35;100.00;100074.94;20818448;28;20053;-70
2022/09/03 11:01:22;;;;;;;18.15;13.70;;;;;;;18.27;100.00;100062.09;20818356;28;20052;-72
2022/09/03 11:11:25;;;;;;;22.70;14.95;;;;;;;18.24;100.00;100053.44;20817780;28;20430;-71
2022/09/03 11:21:26;;;;;;;17.50;13.77;;;;;;;18.88;100.00;100050.00;20818028;28;20060;-72
2022/09/03 11:31:28;;;;;;;13.73;11.07;;;;;;;19.15;100.00;100042.28;20815699;28;20053;-73
2022/09/03 11:41:30;;;;;;;10.82;8.57;;;;;;;19.87;100.00;100035.44;20816472;28;20487;-71
2022/09/03 11:51:32;;;;;;;13.27;9.85;;;;;;;20.13;100.00;100025.91;20817103;28;20490;-71
2022/09/03 12:01:34;;;;;;;11.10;8.07;;;;;;;20.28;100.00;100032.09;20819714;28;20049;-71
2022/09/03 12:11:35;;;;;;;10.00;7.35;;;;;;;20.61;100.00;100031.81;20830670;28;20481;-70
2022/09/03 12:21:37;;;;;;;7.90;5.40;;;;;;;20.94;100.00;100034.16;20830117;28;20061;-70
2022/09/03 12:31:39;;;;;;;8.10;5.85;;;;;;;21.13;100.00;100031.16;20829255;28;20091;-70
2022/09/03 12:41:43;;;;;;;9.00;6.90;;;;;;;20.85;100.00;100024.09;20828621;28;20056;-70
2022/09/03 12:51:44;;;;;;;8.68;6.30;;;;;;;20.68;100.00;100023.34;20828841;28;20132;-69
2022/09/03 13:01:51;;;;;;;10.00;6.72;;;;;;;20.57;100.00;100025.00;20826916;28;20136;-69
2022/09/03 13:11:54;;;;;;;9.70;7.80;;;;;;;20.42;100.00;100032.94;20825559;28;20061;-68
2022/09/03 13:21:56;;;;;;;10.88;8.20;;;;;;;20.30;100.00;100046.97;20825953;28;20081;-70
2022/09/03 13:31:58;;;;;;;11.65;8.57;;;;;;;20.30;100.00;100023.06;20823550;28;20063;-69
2022/09/03 13:42:06;;;;;;;13.23;9.13;;;;;;;20.26;100.00;100026.84;20824220;28;20502;-70
2022/09/03 13:52:08;;;;;;;17.80;11.48;;;;;;;19.66;100.00;100046.41;20823342;28;20072;-70
2022/09/03 14:02:09;;;;;;;15.35;12.23;;;;;;;19.52;100.00;100024.25;20821628;28;20059;-70
2022/09/03 14:12:11;;;;;;;17.20;13.15;;;;;;;19.48;100.00;100023.56;20820603;28;20099;-70
2022/09/03 14:22:12;;;;;;;19.52;14.02;;;;;;;19.35;100.00;100022.56;20820027;28;20136;-70
2022/09/03 14:32:13;;;;;;;19.63;15.20;;;;;;;19.60;100.00;100036.16;20819249;28;20048;-70
2022/09/03 14:42:15;;;;;;;15.13;12.38;;;;;;;19.89;100.00;100026.44;20819723;28;20049;-70
2022/09/03 14:52:16;;;;;;;13.15;10.35;;;;;;;20.17;100.00;100040.69;20819587;28;20060;-71
2022/09/03 15:02:17;;;;;;;11.68;9.40;;;;;;;20.13;100.00;100033.91;20817638;28;20053;-71
2022/09/03 15:12:19;;;;;;;14.68;12.57;;;;;;;20.14;100.00;100049.75;20817887;28;20414;-71
2022/09/03 15:22:23;;;;;;;13.38;10.85;;;;;;;20.03;100.00;100057.53;20817982;28;20490;-71
2022/09/03 15:32:25;;;;;;;13.55;11.35;;;;;;;20.12;100.00;100053.41;20816616;28;20472;-71
2022/09/03 15:42:28;;;;;;;9.23;4.95;;;;;;;20.03;100.00;100057.53;20831249;28;20059;-71
2022/09/03 15:52:29;;;;;;;2.92;1.50;;;;;;;19.94;100.00;100053.59;20832683;28;20100;-72
2022/09/03 16:02:32;;;;;;;8.45;3.33;;;;;;;19.83;100.00;100055.16;20833685;28;20045;-70
2022/09/03 16:12:33;;;;;;;2.72;1.40;;;;;;;20.06;100.00;100054.66;20864491;28;20136;-71
2022/09/03 16:22:35;;;;;;;4.47;1.10;;;;;;;20.64;100.00;100043.09;20869886;28;20099;-71
2022/09/03 16:32:36;;;;;;;2.28;1.00;;;;;;;20.99;100.00;100050.66;20822098;28;20045;-71
2022/09/03 16:42:37;;;;;;;6.15;1.10;;;;;;;20.69;100.00;100041.00;20882165;28;20055;-71
2022/09/03 16:52:39;;;;;;;2.83;0.90;;;;;;;20.53;100.00;100039.44;20902288;28;20056;-71
2022/09/03 17:02:40;;;;;;;4.45;1.50;;;;;;;20.31;100.00;100058.47;20901399;28;20064;-71
2022/09/03 17:12:42;;;;;;;9.45;4.40;;;;;;;19.79;100.00;100048.34;20873740;28;20410;-71
2022/09/03 17:22:44;;;;;;;2.60;1.05;;;;;;;19.52;100.00;100045.47;20818730;28;20054;-70
2022/09/03 17:32:45;;;;;;;4.28;1.50;;;;;;;19.40;100.00;100057.66;20816563;28;20525;-70
2022/09/03 17:42:48;;;;;;;4.10;2.20;;;;;;;19.05;100.00;100068.47;20816352;28;20049;-70
2022/09/03 17:52:49;;;;;;;3.67;1.80;;;;;;;18.80;100.00;100071.66;20816347;28;20537;-69
2022/09/03 18:02:50;;;;;;;4.15;1.90;;;;;;;18.64;100.00;100090.16;20814009;28;20045;-70
2022/09/03 18:12:52;;;;;;;3.50;1.83;;;;;;;18.39;100.00;100105.66;20841888;28;20452;-69
2022/09/03 20:16:44;;;;;;;6.78;2.33;;;;;;;17.23;100.00;100183.75;20867450;28;20044;-68
2022/09/03 20:26:46;;;;;;;5.93;2.67;;;;;;;17.10;100.00;100196.72;20899373;28;20059;-68
2022/09/03 20:36:50;;;;;;;5.88;2.83;;;;;;;17.04;100.00;100198.78;20902481;28;20049;-68
2022/09/03 20:46:51;;;;;;;7.22;3.05;;;;;;;16.96;100.00;100212.38;20902396;28;20143;-69
2022/09/03 20:56:53;;;;;;;8.40;2.97;;;;;;;16.89;100.00;100219.69;20901469;28;20406;-68
2022/09/03 21:06:55;;;;;;;5.30;3.10;;;;;;;16.81;100.00;100227.09;20900801;28;20559;-68
2022/09/03 21:16:56;;;;;;;5.78;3.13;;;;;;;16.67;100.00;100234.75;20837706;28;20049;-68
2022/09/03 21:26:57;;;;;;;6.07;3.10;;;;;;;16.48;100.00;100239.09;20817317;28;20430;-68
2022/09/03 21:36:59;;;;;;;6.22;3.30;;;;;;;16.40;100.00;100242.09;20815328;28;20053;-68
2022/09/03 21:47:00;;;;;;;5.65;3.15;;;;;;;16.27;100.00;100240.88;20815566;28;20053;-68
2022/09/03 21:57:01;;;;;;;7.75;3.38;;;;;;;16.10;100.00;100258.28;20814927;28;20057;-68
2022/09/03 22:07:03;;;;;;;5.13;2.60;;;;;;;16.08;100.00;100267.19;20818912;28;20045;-68
2022/09/03 22:17:07;;;;;;;6.22;3.03;;;;;;;15.99;100.00;100268.41;20820903;28;20049;-68
2022/09/03 22:27:09;;;;;;;6.18;2.85;;;;;;;15.93;100.00;100268.66;20820226;28;20076;-68
2022/09/03 22:37:11;;;;;;;6.18;2.90;;;;;;;15.74;100.00;100275.59;20818555;28;20049;-68
2022/09/03 22:47:12;;;;;;;7.47;3.42;;;;;;;15.71;100.00;100280.97;20818340;28;20490;-68
2022/09/03 22:57:14;;;;;;;9.65;4.30;;;;;;;15.61;100.00;100283.94;20818239;28;20080;-68
2022/09/03 23:07:19;;;;;;;9.13;5.97;;;;;;;15.62;100.00;100295.38;20816223;28;20049;-68
2022/09/03 23:17:24;;;;;;;8.40;5.07;;;;;;;15.65;100.00;100303.19;20816779;28;20053;-68
2022/09/03 23:27:25;;;;;;;9.05;5.65;;;;;;;15.59;100.00;100299.00;20816982;28;20045;-68
2022/09/03 23:37:26;;;;;;;9.13;5.38;;;;;;;15.55;100.00;100301.78;20816137;28;20418;-69
2022/09/03 23:47:35;;;;;;;11.40;5.95;;;;;;;15.43;100.00;100303.13;20816177;28;20115;-68
2022/09/03 23:57:37;;;;;;;6.90;3.53;;;;;;;15.37;100.00;100317.38;20820250;28;20056;-68
